Time;durP1;ratioP1;P1;durP2;ratioP2;P2;SDS_P1;SDS_P2;PMS_P1;PMS_P2;Temp;Humidity;BMP_temperature;BMP_pressure;BME280_temperature;BME280_humidity;BME280_pressure;Samples;Min_cycle;Max_cycle;Signal;HPM_P1;HPM_P2
2021/05/16 00:00:16;;;;;;;23.70;18.87;;;11.90;99.90;;;;;;5061110;28;20239;-83
2021/05/16 00:03:06;;;;;;;25.77;20.40;;;11.90;99.90;;;;;;5058134;28;20182;-85
2021/05/16 00:05:35;;;;;;;26.57;20.30;;;11.90;99.90;;;;;;5039441;28;20202;-85
2021/05/16 00:08:03;;;;;;;28.80;20.83;;;11.90;99.90;;;;;;5054414;28;20210;-84
2021/05/16 00:10:31;;;;;;;25.00;21.00;;;11.90;99.90;;;;;;5060130;28;20210;-84
2021/05/16 00:13:00;;;;;;;23.47;20.07;;;11.80;99.90;;;;;;5046937;28;20179;-83
2021/05/16 00:15:29;;;;;;;31.27;20.73;;;11.90;99.90;;;;;;5050040;28;20203;-84
2021/05/16 00:17:58;;;;;;;26.77;21.13;;;11.90;99.90;;;;;;5033677;28;20217;-83
2021/05/16 00:20:29;;;;;;;27.87;22.13;;;11.80;99.90;;;;;;5031978;28;20241;-81
2021/05/16 00:22:58;;;;;;;25.43;20.63;;;11.80;99.90;;;;;;5034923;28;20292;-83
2021/05/16 00:25:27;;;;;;;24.00;21.43;;;11.80;99.90;;;;;;5031850;28;20198;-81
2021/05/16 00:27:56;;;;;;;25.57;20.73;;;11.80;99.90;;;;;;5032046;28;20744;-83
2021/05/16 00:30:26;;;;;;;25.17;20.97;;;11.70;99.90;;;;;;5010491;28;20233;-84
2021/05/16 00:32:56;;;;;;;29.13;22.63;;;11.70;99.90;;;;;;5056502;28;20232;-83
2021/05/16 00:35:25;;;;;;;25.50;22.63;;;11.70;99.90;;;;;;5058298;28;20191;-82
2021/05/16 00:37:55;;;;;;;29.60;22.23;;;11.60;99.90;;;;;;5038355;28;20207;-83
2021/05/16 00:40:23;;;;;;;30.07;23.17;;;11.60;99.90;;;;;;5020954;28;20226;-83
2021/05/16 00:42:51;;;;;;;27.93;24.63;;;11.60;99.90;;;;;;5030404;28;20707;-82
2021/05/16 00:45:22;;;;;;;32.60;24.80;;;11.70;99.90;;;;;;5022875;28;20215;-83
2021/05/16 00:47:51;;;;;;;28.60;24.43;;;11.50;99.90;;;;;;5055352;28;20251;-84
2021/05/16 00:50:21;;;;;;;28.63;24.83;;;11.50;99.90;;;;;;5036855;28;20218;-82
2021/05/16 00:52:50;;;;;;;29.00;25.40;;;11.50;99.90;;;;;;5044386;28;20212;-86
2021/05/16 00:55:20;;;;;;;28.57;25.07;;;11.60;99.90;;;;;;5045270;28;20237;-82
2021/05/16 00:57:48;;;;;;;30.77;24.50;;;11.50;99.90;;;;;;5051958;28;20286;-84
2021/05/16 01:00:19;;;;;;;28.27;23.87;;;11.50;99.90;;;;;;5050675;28;20236;-83
2021/05/16 01:02:47;;;;;;;28.47;24.67;;;11.50;99.90;;;;;;5048663;28;20198;-84
2021/05/16 01:05:17;;;;;;;30.00;25.07;;;11.60;99.90;;;;;;5051274;28;20197;-83
2021/05/16 01:07:47;;;;;;;32.30;26.40;;;11.40;99.90;;;;;;5048328;28;20194;-83
2021/05/16 01:10:16;;;;;;;28.47;25.23;;;11.40;99.90;;;;;;5038086;28;20546;-82
2021/05/16 01:12:46;;;;;;;34.57;25.80;;;11.40;99.90;;;;;;5024340;28;20334;-82
2021/05/16 01:15:17;;;;;;;29.67;25.20;;;11.40;99.90;;;;;;5032938;28;20225;-82
2021/05/16 01:17:46;;;;;;;30.60;25.37;;;11.40;99.90;;;;;;5038339;28;20232;-84
2021/05/16 01:20:16;;;;;;;30.10;25.97;;;11.40;99.90;;;;;;5047922;28;20221;-83
2021/05/16 01:22:51;;;;;;;29.37;24.97;;;11.50;99.90;;;;;;5033560;28;20225;-85
2021/05/16 01:25:19;;;;;;;29.30;25.77;;;11.50;99.90;;;;;;5048719;28;20475;-84
2021/05/16 01:27:48;;;;;;;27.97;25.03;;;11.50;99.90;;;;;;5017050;28;20565;-83
2021/05/16 01:30:18;;;;;;;29.67;25.67;;;11.40;99.90;;;;;;5036431;28;20240;-84
2021/05/16 01:32:46;;;;;;;28.40;25.30;;;11.50;99.90;;;;;;5036147;28;20198;-84
2021/05/16 01:35:15;;;;;;;31.03;25.53;;;11.50;99.90;;;;;;5031522;28;20206;-86
2021/05/16 01:37:43;;;;;;;28.50;25.40;;;11.50;99.90;;;;;;5035056;28;20594;-84
2021/05/16 01:40:12;;;;;;;29.10;25.27;;;11.50;99.90;;;;;;5038812;28;20287;-84
2021/05/16 01:42:46;;;;;;;27.23;24.33;;;11.50;99.90;;;;;;5041296;28;20213;-85
2021/05/16 01:45:16;;;;;;;31.50;24.57;;;11.50;99.90;;;;;;5045329;28;20770;-82
2021/05/16 01:47:44;;;;;;;31.43;26.27;;;11.40;99.90;;;;;;5040273;28;20202;-84
2021/05/16 01:50:14;;;;;;;30.10;25.90;;;11.30;99.90;;;;;;5032456;28;20202;-82
2021/05/16 01:52:44;;;;;;;33.77;25.10;;;11.30;99.90;;;;;;5036871;28;20434;-81
2021/05/16 01:55:15;;;;;;;29.10;25.63;;;11.40;99.90;;;;;;5034208;28;20426;-83
2021/05/16 01:57:44;;;;;;;28.93;25.03;;;11.40;99.90;;;;;;5032059;28;20199;-82
2021/05/16 02:00:17;;;;;;;27.73;24.20;;;11.40;99.90;;;;;;5035358;28;20252;-85
2021/05/16 02:02:46;;;;;;;29.43;25.43;;;11.40;99.90;;;;;;5028843;28;20694;-86
2021/05/16 02:05:15;;;;;;;27.97;24.97;;;11.40;99.90;;;;;;5049070;28;20202;-85
2021/05/16 02:07:43;;;;;;;30.37;24.80;;;11.40;99.90;;;;;;5053472;28;20205;-86
2021/05/16 02:10:13;;;;;;;31.40;25.87;;;11.40;99.90;;;;;;5036402;28;20531;-85
2021/05/16 02:12:41;;;;;;;29.07;24.77;;;11.30;99.90;;;;;;5038123;28;20252;-85
2021/05/16 02:15:11;;;;;;;29.17;24.80;;;11.30;99.90;;;;;;5028669;28;20217;-85
2021/05/16 02:17:41;;;;;;;30.23;25.70;;;11.30;99.90;;;;;;5031845;28;20274;-83
2021/05/16 02:20:10;;;;;;;26.80;24.00;;;11.30;99.90;;;;;;5029191;28;20299;-82
2021/05/16 02:22:39;;;;;;;28.03;24.87;;;11.30;99.90;;;;;;5033702;28;20598;-83
2021/05/16 02:25:08;;;;;;;30.60;25.40;;;11.20;99.90;;;;;;5035388;28;20237;-82
2021/05/16 02:27:37;;;;;;;29.37;26.03;;;11.20;99.90;;;;;;5031190;28;20511;-82
2021/05/16 02:30:08;;;;;;;31.23;26.10;;;11.20;99.90;;;;;;5035209;28;20214;-83
2021/05/16 02:32:37;;;;;;;28.43;24.30;;;11.20;99.90;;;;;;5032671;28;20206;-82
2021/05/16 02:35:10;;;;;;;30.90;25.80;;;11.10;99.90;;;;;;5034495;28;20261;-83
2021/05/16 02:37:39;;;;;;;27.53;24.57;;;11.20;99.90;;;;;;5032338;28;20240;-83
2021/05/16 02:40:08;;;;;;;32.03;27.13;;;11.20;99.90;;;;;;5034139;28;20230;-82
2021/05/16 02:42:36;;;;;;;28.47;25.43;;;11.10;99.90;;;;;;5039009;28;20215;-82
2021/05/16 02:45:06;;;;;;;30.07;26.53;;;11.20;99.90;;;;;;5029737;28;20261;-83
2021/05/16 02:47:34;;;;;;;32.50;26.80;;;11.30;99.90;;;;;;5034401;28;20202;-81
2021/05/16 02:50:03;;;;;;;30.87;27.20;;;11.20;99.90;;;;;;5033796;28;20257;-82
2021/05/16 02:52:31;;;;;;;29.80;26.57;;;11.20;99.90;;;;;;5032154;28;20511;-82
2021/05/16 02:54:59;;;;;;;32.83;27.63;;;11.20;99.90;;;;;;5036456;28;20202;-83
2021/05/16 02:57:26;;;;;;;29.93;26.73;;;11.10;99.90;;;;;;5033801;28;20207;-82
2021/05/16 02:59:56;;;;;;;32.40;27.40;;;11.10;99.90;;;;;;5037411;28;20209;-85
2021/05/16 03:02:24;;;;;;;32.67;27.07;;;11.10;99.90;;;;;;5030624;28;20664;-83
2021/05/16 03:04:52;;;;;;;29.10;25.83;;;11.10;99.90;;;;;;5033336;28;20656;-83
2021/05/16 03:07:20;;;;;;;31.13;27.80;;;11.00;99.90;;;;;;5037245;28;20207;-84
2021/05/16 03:09:48;;;;;;;33.30;28.33;;;11.00;99.90;;;;;;5038673;28;20226;-82
2021/05/16 03:12:17;;;;;;;32.37;27.47;;;11.00;99.90;;;;;;5036668;28;20240;-83
2021/05/16 03:14:45;;;;;;;31.13;27.13;;;11.00;99.90;;;;;;5051852;28;20411;-83
2021/05/16 03:17:14;;;;;;;30.07;26.87;;;11.00;99.90;;;;;;5053836;28;20323;-83
2021/05/16 03:19:42;;;;;;;31.27;27.97;;;11.00;99.90;;;;;;5059911;28;20212;-85
2021/05/16 03:22:11;;;;;;;31.70;28.00;;;11.10;99.90;;;;;;5049755;28;21078;-83
2021/05/16 03:24:40;;;;;;;31.03;27.43;;;10.90;99.90;;;;;;5057894;28;21054;-85
2021/05/16 03:27:07;;;;;;;32.60;27.50;;;10.90;99.90;;;;;;5049415;28;20206;-84
2021/05/16 03:29:36;;;;;;;32.33;27.60;;;10.90;99.90;;;;;;5058233;28;20216;-83
2021/05/16 03:32:05;;;;;;;34.37;28.97;;;10.90;99.90;;;;;;5049524;28;20431;-84
2021/05/16 03:34:35;;;;;;;33.73;30.07;;;10.90;99.90;;;;;;5053987;28;20201;-83
2021/05/16 03:37:05;;;;;;;33.53;29.60;;;10.90;99.90;;;;;;5063963;28;20563;-83
2021/05/16 03:39:33;;;;;;;36.30;30.50;;;11.00;99.90;;;;;;5065006;28;20202;-83
2021/05/16 03:42:00;;;;;;;34.63;30.70;;;11.10;99.90;;;;;;5060159;28;20225;-85
2021/05/16 03:44:30;;;;;;;34.50;30.67;;;11.10;99.90;;;;;;5071787;28;20206;-83
2021/05/16 03:46:58;;;;;;;36.30;30.93;;;11.40;99.90;;;;;;5060271;28;20238;-84
2021/05/16 03:49:26;;;;;;;39.60;31.13;;;11.40;99.90;;;;;;5067305;28;20236;-83
2021/05/16 03:51:55;;;;;;;35.63;30.93;;;11.60;99.90;;;;;;5071251;28;21028;-85
2021/05/16 03:54:24;;;;;;;34.03;28.27;;;11.70;99.90;;;;;;5055448;28;20198;-83
2021/05/16 03:56:52;;;;;;;31.20;26.70;;;11.80;99.90;;;;;;5063655;28;20221;-84
2021/05/16 03:59:20;;;;;;;31.10;26.60;;;12.10;99.90;;;;;;5055736;28;20226;-83
2021/05/16 04:01:50;;;;;;;27.50;24.43;;;11.90;99.90;;;;;;5059119;28;20573;-84
2021/05/16 04:04:18;;;;;;;28.53;24.63;;;12.10;99.90;;;;;;5051967;28;20697;-83
2021/05/16 04:06:46;;;;;;;27.57;22.17;;;12.20;99.90;;;;;;5052216;28;20411;-84
2021/05/16 04:09:15;;;;;;;26.97;22.40;;;12.30;99.90;;;;;;5051513;28;20255;-82
2021/05/16 04:11:43;;;;;;;23.90;21.33;;;12.30;99.90;;;;;;5046902;28;20205;-81
2021/05/16 04:14:11;;;;;;;21.83;19.60;;;12.40;99.90;;;;;;5048979;28;20232;-84
2021/05/16 04:16:39;;;;;;;21.90;19.50;;;12.60;99.90;;;;;;5055743;28;20206;-85
2021/05/16 04:19:07;;;;;;;21.77;19.57;;;12.60;99.90;;;;;;5069936;28;20290;-86
2021/05/16 04:21:35;;;;;;;21.17;18.73;;;12.60;99.90;;;;;;5074587;28;20217;-84
2021/05/16 04:24:03;;;;;;;21.50;19.30;;;12.60;99.90;;;;;;5072224;28;20279;-85
2021/05/16 04:26:32;;;;;;;22.93;20.13;;;12.60;99.90;;;;;;5073157;28;20213;-83
2021/05/16 04:29:00;;;;;;;21.57;19.37;;;12.70;99.90;;;;;;5049447;28;20209;-84
2021/05/16 04:31:29;;;;;;;22.93;20.00;;;12.80;99.90;;;;;;5054118;28;20201;-83
2021/05/16 04:33:57;;;;;;;22.03;19.77;;;12.80;99.90;;;;;;5031678;28;20677;-84
2021/05/16 04:36:26;;;;;;;23.83;20.63;;;12.80;99.90;;;;;;5049369;28;20507;-83
2021/05/16 04:38:54;;;;;;;24.07;21.23;;;12.80;99.90;;;;;;5056597;28;20205;-83
2021/05/16 04:41:23;;;;;;;24.03;21.13;;;12.90;99.90;;;;;;5028415;28;20657;-85
2021/05/16 04:43:53;;;;;;;24.23;21.63;;;12.70;99.90;;;;;;5046676;28;20210;-84
2021/05/16 04:46:21;;;;;;;25.27;21.40;;;12.70;99.90;;;;;;5048454;28;20202;-85
2021/05/16 04:48:49;;;;;;;26.67;22.90;;;12.70;99.90;;;;;;5053952;28;20206;-84
2021/05/16 04:51:17;;;;;;;25.70;21.27;;;12.60;99.90;;;;;;5055850;28;20221;-87
2021/05/16 04:53:45;;;;;;;25.20;21.80;;;12.50;99.90;;;;;;5053231;28;20228;-84
2021/05/16 04:56:13;;;;;;;27.30;22.33;;;12.40;99.90;;;;;;5055612;28;20205;-83
2021/05/16 04:58:41;;;;;;;26.80;22.87;;;12.40;99.90;;;;;;5062916;28;20201;-82
2021/05/16 05:01:10;;;;;;;27.37;23.30;;;12.30;99.90;;;;;;5056259;28;20252;-83
2021/05/16 05:03:38;;;;;;;26.40;22.77;;;12.40;99.90;;;;;;5054426;28;20210;-83
2021/05/16 05:06:07;;;;;;;28.00;24.63;;;12.30;99.90;;;;;;5053534;28;20733;-84
2021/05/16 05:08:37;;;;;;;29.17;26.00;;;12.50;99.90;;;;;;5064359;28;20566;-83
2021/05/16 05:11:06;;;;;;;28.23;25.20;;;12.50;99.90;;;;;;5061379;28;20219;-83
2021/05/16 05:13:34;;;;;;;30.17;26.97;;;12.50;99.90;;;;;;5068386;28;20243;-84
2021/05/16 05:16:02;;;;;;;29.30;26.17;;;12.50;99.90;;;;;;5072146;28;20544;-84
2021/05/16 05:18:32;;;;;;;30.93;26.27;;;12.60;99.90;;;;;;5073642;28;20216;-84
2021/05/16 05:21:00;;;;;;;29.33;26.23;;;12.70;99.90;;;;;;5073537;28;20284;-82
2021/05/16 05:23:29;;;;;;;30.37;26.97;;;12.80;99.90;;;;;;5049557;28;20214;-84
2021/05/16 05:25:58;;;;;;;30.80;25.93;;;12.90;99.90;;;;;;5064147;28;20209;-83
2021/05/16 05:28:27;;;;;;;30.77;26.30;;;13.00;99.90;;;;;;5069822;28;20197;-82
2021/05/16 05:30:55;;;;;;;27.33;24.43;;;13.10;99.90;;;;;;5069457;28;20217;-83
2021/05/16 05:33:23;;;;;;;26.70;23.83;;;13.10;99.90;;;;;;5064914;28;20202;-83
2021/05/16 05:35:53;;;;;;;25.80;23.00;;;13.10;99.90;;;;;;5056082;28;20209;-84
2021/05/16 05:38:22;;;;;;;26.27;22.90;;;13.20;99.90;;;;;;5056602;28;20671;-84
2021/05/16 05:40:50;;;;;;;26.97;22.63;;;13.20;99.90;;;;;;5052643;28;20289;-86
2021/05/16 05:43:19;;;;;;;26.27;23.47;;;13.20;99.90;;;;;;5054957;28;20206;-86
2021/05/16 05:45:48;;;;;;;28.27;24.43;;;13.40;99.90;;;;;;5056843;28;20229;-84
2021/05/16 05:48:16;;;;;;;26.87;24.07;;;13.30;99.90;;;;;;5048592;28;20210;-83
2021/05/16 05:50:44;;;;;;;27.53;24.70;;;13.40;99.90;;;;;;5054388;28;20206;-85
2021/05/16 05:53:14;;;;;;;27.37;24.47;;;13.50;99.90;;;;;;5051745;28;20366;-87
2021/05/16 05:55:43;;;;;;;30.13;24.90;;;13.60;99.90;;;;;;5056950;28;20212;-86
2021/05/16 05:58:12;;;;;;;24.80;22.10;;;13.80;99.90;;;;;;5059203;28;20231;-86
2021/05/16 06:00:42;;;;;;;23.77;21.17;;;13.90;99.90;;;;;;5059730;28;20261;-86
2021/05/16 06:03:11;;;;;;;22.50;20.10;;;13.90;99.90;;;;;;5069021;28;20221;-86
2021/05/16 06:05:46;;;;;;;23.80;20.43;;;14.00;99.90;;;;;;5073193;28;20539;-85
2021/05/16 06:08:16;;;;;;;22.20;19.57;;;14.00;99.90;;;;;;5069261;28;20209;-86
2021/05/16 06:10:45;;;;;;;21.47;18.80;;;14.00;99.90;;;;;;5063786;28;20208;-85
2021/05/16 06:13:15;;;;;;;20.93;18.73;;;14.00;99.90;;;;;;5060988;28;20303;-87
2021/05/16 06:15:44;;;;;;;25.77;19.73;;;14.10;99.90;;;;;;5063904;28;20210;-84
2021/05/16 06:18:13;;;;;;;21.20;19.03;;;14.20;99.90;;;;;;5060495;28;20213;-86
2021/05/16 06:20:42;;;;;;;20.17;18.03;;;14.40;99.90;;;;;;5071641;28;20192;-85
2021/05/16 06:23:13;;;;;;;20.03;17.93;;;14.60;99.90;;;;;;5073185;28;20264;-86
2021/05/16 06:25:47;;;;;;;19.10;17.10;;;14.90;99.90;;;;;;5065975;28;20215;-86
2021/05/16 06:28:15;;;;;;;19.53;16.33;;;15.20;99.90;;;;;;5067870;28;20236;-84
2021/05/16 06:30:44;;;;;;;17.87;16.07;;;15.40;98.50;;;;;;5043925;28;20471;-85
2021/05/16 06:33:12;;;;;;;16.93;15.00;;;15.70;97.90;;;;;;5064507;28;20280;-86
2021/05/16 06:35:41;;;;;;;16.90;14.60;;;15.90;97.20;;;;;;5063811;28;20364;-85
2021/05/16 06:38:08;;;;;;;16.63;14.93;;;16.10;96.20;;;;;;5073454;28;20198;-85
2021/05/16 06:40:37;;;;;;;16.67;14.87;;;16.30;97.10;;;;;;5065223;28;20205;-85
2021/05/16 06:43:06;;;;;;;15.10;13.53;;;16.40;94.30;;;;;;5061928;28;20225;-85
2021/05/16 06:45:34;;;;;;;14.73;13.33;;;16.60;92.90;;;;;;5074200;28;20212;-85
2021/05/16 06:48:02;;;;;;;13.17;11.87;;;16.70;91.80;;;;;;5075344;28;20283;-86
2021/05/16 06:50:30;;;;;;;13.63;12.20;;;16.70;91.70;;;;;;5070990;28;20200;-85
2021/05/16 06:52:58;;;;;;;12.93;11.57;;;16.80;91.60;;;;;;5064805;28;20286;-86
2021/05/16 06:55:27;;;;;;;15.90;12.87;;;16.90;91.30;;;;;;5058719;28;20197;-87
2021/05/16 06:57:55;;;;;;;13.97;12.57;;;16.70;91.20;;;;;;5063232;28;20198;-87
2021/05/16 07:00:24;;;;;;;13.63;12.23;;;16.80;91.20;;;;;;5055051;28;20212;-86
2021/05/16 07:02:53;;;;;;;15.97;12.03;;;16.80;92.20;;;;;;5059838;28;20237;-87
2021/05/16 07:05:21;;;;;;;13.17;11.83;;;17.00;91.40;;;;;;5060361;28;20185;-84
2021/05/16 07:07:49;;;;;;;14.27;12.33;;;17.10;92.70;;;;;;5057922;28;20296;-86
2021/05/16 07:10:18;;;;;;;12.50;11.27;;;17.20;91.70;;;;;;5059289;28;20206;-86
2021/05/16 07:12:46;;;;;;;13.60;11.93;;;17.30;91.00;;;;;;5051903;28;20960;-87
2021/05/16 07:15:15;;;;;;;12.83;11.53;;;17.40;90.80;;;;;;5057040;28;20357;-84
2021/05/16 07:17:48;;;;;;;12.80;11.37;;;17.40;90.30;;;;;;5056974;28;20218;-85
2021/05/16 07:20:16;;;;;;;12.80;11.53;;;17.40;90.30;;;;;;5054302;28;20341;-84
2021/05/16 07:22:45;;;;;;;11.90;10.60;;;17.30;90.00;;;;;;5056226;28;20225;-85
2021/05/16 07:25:14;;;;;;;12.10;10.97;;;17.30;90.30;;;;;;5050801;28;20209;-84
2021/05/16 07:27:42;;;;;;;12.57;11.27;;;17.20;89.80;;;;;;5060029;28;20203;-84
2021/05/16 07:30:12;;;;;;;11.60;10.50;;;17.20;90.40;;;;;;5055167;28;20339;-85
2021/05/16 07:32:40;;;;;;;11.40;10.30;;;17.20;90.50;;;;;;5053089;28;20380;-86
2021/05/16 07:35:10;;;;;;;11.97;10.77;;;17.20;90.10;;;;;;5055848;28;20662;-85
2021/05/16 07:37:39;;;;;;;11.87;10.67;;;17.20;89.80;;;;;;5050012;28;20252;-84
2021/05/16 07:40:08;;;;;;;11.57;10.03;;;17.30;90.00;;;;;;5054586;28;20202;-83
2021/05/16 07:42:36;;;;;;;11.80;10.60;;;17.40;90.30;;;;;;5051089;28;20489;-86
2021/05/16 07:45:13;;;;;;;10.77;9.67;;;17.40;89.90;;;;;;5077358;28;20201;-85
2021/05/16 07:47:42;;;;;;;10.30;9.30;;;17.80;90.30;;;;;;5057763;28;20216;-86
2021/05/16 07:50:13;;;;;;;9.30;8.13;;;18.00;89.90;;;;;;5053112;28;20482;-84
2021/05/16 07:52:42;;;;;;;9.07;7.90;;;18.20;87.90;;;;;;5052855;28;20205;-83
2021/05/16 07:55:11;;;;;;;8.40;7.60;;;18.20;87.00;;;;;;5074006;28;20206;-83
2021/05/16 07:57:40;;;;;;;8.33;7.30;;;18.30;87.70;;;;;;5071938;28;20194;-86
2021/05/16 08:00:11;;;;;;;8.30;7.50;;;18.30;86.50;;;;;;5077999;28;20203;-86
2021/05/16 08:02:41;;;;;;;7.63;6.93;;;18.40;87.00;;;;;;5076306;28;20235;-85
2021/05/16 08:05:13;;;;;;;6.13;5.63;;;18.30;86.00;;;;;;5074063;28;20229;-84
2021/05/16 08:07:41;;;;;;;6.77;6.13;;;18.30;85.20;;;;;;5064250;28;20205;-84
2021/05/16 08:10:11;;;;;;;6.40;5.77;;;18.30;85.70;;;;;;5074913;28;20219;-84
2021/05/16 08:12:39;;;;;;;7.43;5.87;;;18.60;85.60;;;;;;5070248;28;20205;-84
2021/05/16 08:15:09;;;;;;;6.03;5.50;;;19.10;84.90;;;;;;5069485;28;20235;-89
2021/05/16 08:17:37;;;;;;;7.53;6.07;;;19.20;85.00;;;;;;5065167;28;20805;-84
2021/05/16 08:20:09;;;;;;;6.70;6.13;;;19.40;84.60;;;;;;5056132;28;20201;-83
2021/05/16 08:22:39;;;;;;;6.83;5.60;;;19.40;84.10;;;;;;5052778;28;20270;-83
2021/05/16 08:25:12;;;;;;;5.90;5.37;;;19.70;84.50;;;;;;5066193;28;20201;-84
2021/05/16 08:27:41;;;;;;;5.23;4.73;;;19.90;83.30;;;;;;5066907;28;20184;-84
2021/05/16 08:30:10;;;;;;;4.40;4.00;;;20.10;83.70;;;;;;5079111;28;20193;-85
2021/05/16 08:32:39;;;;;;;4.67;4.30;;;20.10;82.50;;;;;;5075829;28;20182;-86
2021/05/16 08:35:08;;;;;;;4.20;3.90;;;20.00;82.30;;;;;;5080436;28;20205;-85
2021/05/16 08:37:38;;;;;;;4.60;4.17;;;20.20;81.50;;;;;;5079538;28;20254;-87
2021/05/16 08:40:12;;;;;;;5.23;3.80;;;20.10;81.30;;;;;;5074602;28;20276;-83
2021/05/16 08:42:40;;;;;;;4.30;4.00;;;20.10;81.40;;;;;;5069070;28;20213;-84
2021/05/16 08:45:12;;;;;;;4.40;4.10;;;20.00;81.40;;;;;;5063055;28;20201;-83
2021/05/16 08:47:42;;;;;;;4.50;4.10;;;20.00;81.60;;;;;;5073061;28;20205;-82
2021/05/16 08:50:12;;;;;;;4.45;4.03;;;20.10;81.80;;;;;;5070010;28;20209;-87
2021/05/16 08:52:41;;;;;;;3.80;3.50;;;20.40;82.00;;;;;;5071266;28;20288;-84
2021/05/16 08:55:14;;;;;;;3.60;3.30;;;20.50;80.60;;;;;;5056850;28;20205;-84
2021/05/16 08:57:43;;;;;;;4.57;3.90;;;20.50;79.90;;;;;;5049916;28;20194;-83
2021/05/16 09:00:15;;;;;;;4.07;3.78;;;20.60;79.70;;;;;;5057085;28;20224;-85
2021/05/16 09:03:02;;;;;;;4.38;3.65;;;20.80;79.80;;;;;;5051191;28;20235;-86
2021/05/16 09:05:35;;;;;;;4.38;3.92;;;20.80;79.70;;;;;;5067317;28;20311;-86
2021/05/16 09:08:06;;;;;;;3.88;3.40;;;20.70;79.80;;;;;;5075869;28;20216;-83
2021/05/16 09:10:37;;;;;;;5.05;4.15;;;20.80;78.80;;;;;;5075669;28;20204;-84
2021/05/16 09:13:24;;;;;;;4.63;4.20;;;20.80;79.10;;;;;;5067917;28;20209;-84
2021/05/16 09:16:05;;;;;;;5.38;4.07;;;20.90;79.40;;;;;;5063616;28;20201;-84
2021/05/16 09:18:42;;;;;;;4.03;3.63;;;21.00;79.30;;;;;;5057218;28;20201;-85
2021/05/16 09:21:25;;;;;;;4.00;3.70;;;21.10;79.10;;;;;;5063046;28;20605;-86
2021/05/16 09:24:10;;;;;;;4.18;3.88;;;21.40;79.60;;;;;;5060466;28;20312;-85
2021/05/16 09:26:51;;;;;;;4.65;3.80;;;21.70;78.40;;;;;;5068133;28;20202;-86
2021/05/16 09:29:26;;;;;;;4.25;3.85;;;21.70;78.30;;;;;;5057971;28;20204;-83
2021/05/16 09:31:55;;;;;;;4.30;3.90;;;21.70;78.20;;;;;;5064031;28;20291;-86
2021/05/16 09:34:24;;;;;;;4.10;3.70;;;21.80;78.20;;;;;;5057582;28;20210;-85
2021/05/16 09:36:54;;;;;;;4.40;4.10;;;21.60;77.90;;;;;;5054526;28;20229;-83
2021/05/16 09:39:25;;;;;;;4.78;4.30;;;21.40;77.90;;;;;;5066417;28;20193;-83
2021/05/16 09:42:01;;;;;;;4.57;4.18;;;21.10;77.90;;;;;;5062825;28;20228;-85
2021/05/16 09:44:33;;;;;;;4.22;3.92;;;20.90;78.30;;;;;;5062639;28;20229;-84
2021/05/16 09:47:09;;;;;;;5.13;4.50;;;20.80;79.20;;;;;;5054423;28;20662;-83
2021/05/16 09:49:38;;;;;;;4.03;3.72;;;20.90;79.00;;;;;;5041401;28;20213;-86
2021/05/16 09:52:11;;;;;;;4.80;4.40;;;21.00;78.60;;;;;;5053149;28;20206;-82
2021/05/16 09:55:01;;;;;;;4.53;4.13;;;21.10;78.10;;;;;;5060768;28;20197;-86
2021/05/16 09:57:31;;;;;;;4.40;4.10;;;21.00;78.00;;;;;;5072396;28;20230;-84
2021/05/16 10:00:00;;;;;;;4.32;3.92;;;21.00;77.90;;;;;;5076480;28;20212;-86
2021/05/16 10:02:29;;;;;;;4.65;4.25;;;21.00;78.10;;;;;;5057740;28;20198;-86
2021/05/16 10:05:00;;;;;;;4.10;3.80;;;21.00;78.00;;;;;;5044709;28;20209;-82
2021/05/16 10:07:29;;;;;;;3.92;3.63;;;21.10;78.60;;;;;;5059119;28;20205;-84
2021/05/16 10:09:59;;;;;;;4.75;4.20;;;21.00;77.60;;;;;;5052962;28;20239;-86
2021/05/16 10:12:28;;;;;;;4.22;3.83;;;20.90;77.50;;;;;;5052377;28;20650;-85
2021/05/16 10:15:12;;;;;;;3.80;3.50;;;20.70;77.90;;;;;;5057047;28;20716;-86
2021/05/16 10:17:43;;;;;;;3.80;3.50;;;20.60;78.50;;;;;;5054449;28;20288;-87
2021/05/16 10:20:14;;;;;;;3.58;3.35;;;20.60;78.00;;;;;;5062925;28;20216;-85
2021/05/16 10:22:51;;;;;;;3.85;3.42;;;20.80;78.30;;;;;;5048511;28;20766;-81
2021/05/16 10:25:39;;;;;;;4.88;3.58;;;20.90;78.80;;;;;;5068079;28;20210;-84
2021/05/16 10:28:08;;;;;;;3.75;3.42;;;21.10;78.10;;;;;;5080246;28;20209;-83
2021/05/16 10:30:36;;;;;;;3.13;2.90;;;21.20;77.70;;;;;;5072417;28;20253;-86
2021/05/16 10:33:06;;;;;;;3.40;3.20;;;21.10;77.20;;;;;;5078581;28;20687;-84
2021/05/16 10:35:48;;;;;;;3.22;3.03;;;20.90;77.60;;;;;;5069170;28;20197;-87
2021/05/16 10:38:32;;;;;;;3.78;3.22;;;20.90;77.70;;;;;;5067393;28;20476;-85
2021/05/16 10:41:26;;;;;;;3.22;3.00;;;20.90;77.70;;;;;;5054357;28;20393;-84
2021/05/16 10:44:29;;;;;;;4.70;2.90;;;21.20;77.20;;;;;;5057042;28;20221;-82
2021/05/16 10:46:57;;;;;;;2.90;2.70;;;21.10;76.70;;;;;;5063163;28;20197;-83
2021/05/16 10:49:27;;;;;;;2.80;2.60;;;20.70;76.20;;;;;;5077172;28;20220;-84
2021/05/16 10:51:56;;;;;;;2.93;2.70;;;20.40;76.40;;;;;;5061801;28;20206;-83
2021/05/16 10:54:28;;;;;;;2.50;2.30;;;20.40;76.80;;;;;;5057674;28;20194;-83
2021/05/16 10:57:10;;;;;;;2.60;2.40;;;20.50;76.10;;;;;;5074620;28;20205;-84
2021/05/16 10:59:40;;;;;;;2.70;2.50;;;20.70;76.40;;;;;;5057292;28;20203;-85
2021/05/16 11:02:08;;;;;;;2.27;2.17;;;20.70;75.60;;;;;;5076808;28;20206;-84
2021/05/16 11:04:46;;;;;;;2.73;2.30;;;20.70;76.00;;;;;;5076972;28;20221;-85
2021/05/16 11:07:33;;;;;;;3.05;2.70;;;21.00;75.60;;;;;;5078524;28;20209;-88
2021/05/16 11:10:29;;;;;;;2.67;2.47;;;20.90;75.70;;;;;;5074485;28;20475;-85
2021/05/16 11:13:09;;;;;;;2.55;2.28;;;20.80;75.90;;;;;;5030719;28;20206;-83
2021/05/16 11:15:46;;;;;;;2.40;2.20;;;20.90;75.50;;;;;;5079931;28;20496;-86
2021/05/16 11:18:19;;;;;;;2.30;2.20;;;20.90;75.40;;;;;;5081381;28;20227;-84
2021/05/16 11:20:51;;;;;;;2.53;2.00;;;21.10;75.50;;;;;;5082720;28;20189;-86
2021/05/16 11:23:25;;;;;;;5.32;2.15;;;21.30;74.80;;;;;;5075499;28;20326;-85
2021/05/16 11:25:57;;;;;;;2.75;2.20;;;21.40;74.90;;;;;;5067442;28;20186;-86
2021/05/16 11:28:26;;;;;;;2.38;2.17;;;21.80;74.90;;;;;;5110399;22;20233;-86
2021/05/16 11:30:57;;;;;;;2.40;2.30;;;21.90;73.30;;;;;;5083686;28;20181;-85
2021/05/16 11:33:27;;;;;;;2.63;2.25;;;22.00;74.00;;;;;;5082203;28;20217;-86
2021/05/16 11:35:55;;;;;;;2.13;2.03;;;22.00;73.10;;;;;;5073553;28;20193;-84
2021/05/16 11:38:28;;;;;;;2.28;2.13;;;22.10;72.90;;;;;;5079316;28;20186;-84
2021/05/16 11:40:56;;;;;;;3.03;2.28;;;22.20;73.60;;;;;;5075199;28;20205;-82
2021/05/16 11:43:28;;;;;;;2.70;2.50;;;22.40;74.10;;;;;;5079366;28;20236;-85
2021/05/16 11:45:57;;;;;;;2.45;2.25;;;22.50;73.60;;;;;;5076759;28;20216;-85
2021/05/16 11:48:31;;;;;;;2.95;2.75;;;22.40;73.10;;;;;;5078200;28;20247;-86
2021/05/16 11:51:08;;;;;;;3.53;2.50;;;21.90;73.30;;;;;;5081141;28;20253;-86
2021/05/16 11:53:37;;;;;;;4.40;2.88;;;21.40;76.00;;;;;;5080892;28;20224;-86
2021/05/16 11:56:10;;;;;;;4.30;2.80;;;20.90;79.00;;;;;;5080066;28;20206;-85
2021/05/16 11:58:41;;;;;;;3.60;2.90;;;20.10;80.40;;;;;;5067083;28;20201;-84
2021/05/16 12:01:11;;;;;;;3.50;3.20;;;19.60;83.60;;;;;;5081055;28;20495;-85
2021/05/16 12:03:53;;;;;;;3.20;3.00;;;19.20;85.20;;;;;;5082481;28;20244;-86
2021/05/16 12:06:22;;;;;;;3.80;3.43;;;18.90;86.60;;;;;;5065661;28;20300;-84
2021/05/16 12:09:05;;;;;;;4.03;3.73;;;18.70;86.40;;;;;;5081439;28;20262;-86
2021/05/16 12:11:48;;;;;;;5.13;3.90;;;18.60;87.00;;;;;;5080907;28;20182;-85
2021/05/16 12:14:22;;;;;;;4.07;3.67;;;18.50;86.90;;;;;;5074278;28;20209;-87
2021/05/16 12:16:53;;;;;;;5.23;3.60;;;18.50;86.40;;;;;;5071002;28;21073;-85
2021/05/16 12:19:23;;;;;;;5.97;4.13;;;18.30;87.50;;;;;;5083248;28;20177;-84
2021/05/16 12:21:52;;;;;;;4.43;4.03;;;18.20;87.80;;;;;;5077341;28;20268;-83
2021/05/16 12:24:22;;;;;;;5.23;4.70;;;17.90;87.30;;;;;;5073038;28;20279;-85
2021/05/16 12:26:51;;;;;;;12.07;5.27;;;17.40;88.70;;;;;;5080737;28;20209;-83
2021/05/16 12:29:21;;;;;;;5.20;3.60;;;16.80;90.10;;;;;;5081633;28;20201;-82
2021/05/16 12:31:49;;;;;;;7.17;4.57;;;15.90;91.50;;;;;;5062472;28;20355;-84
2021/05/16 12:34:23;;;;;;;5.83;4.53;;;15.30;94.40;;;;;;5056255;28;20821;-81
2021/05/16 12:36:53;;;;;;;7.57;4.30;;;14.80;99.80;;;;;;5052254;28;20213;-82
2021/05/16 12:39:34;;;;;;;6.37;4.43;;;14.50;99.90;;;;;;5069695;28;20208;-83
2021/05/16 12:42:21;;;;;;;8.03;4.40;;;14.40;99.90;;;;;;5051135;28;20267;-84
2021/05/16 12:44:50;;;;;;;4.60;3.50;;;14.30;99.90;;;;;;5057061;28;20729;-84
2021/05/16 12:47:22;;;;;;;3.80;3.50;;;14.20;99.90;;;;;;5058731;28;20244;-83
2021/05/16 12:50:02;;;;;;;4.30;3.77;;;14.20;99.90;;;;;;5051108;28;20266;-85
2021/05/16 12:52:31;;;;;;;4.23;3.70;;;14.00;99.90;;;;;;5055262;28;20208;-83